sensor_id;sensor_type;location;lat;lon;timestamp;pressure;altitude;pressure_sealevel;temperature;humidity
76994;BME280;66749;47.406;18.822;2023-05-07T00:00:12;100399.50;;;14.73;83.76
76994;BME280;66749;47.406;18.822;2023-05-07T00:00:45;100404.03;;;14.71;83.57
76994;BME280;66749;47.406;18.822;2023-05-07T00:01:16;100403.06;;;14.72;83.63
76994;BME280;66749;47.406;18.822;2023-05-07T00:01:46;100401.41;;;14.71;83.82
76994;BME280;66749;47.406;18.822;2023-05-07T00:02:17;100408.78;;;14.66;83.84
76994;BME280;66749;47.406;18.822;2023-05-07T00:02:48;100406.38;;;14.63;83.68
76994;BME280;66749;47.406;18.822;2023-05-07T00:03:18;100404.59;;;14.63;83.75
76994;BME280;66749;47.406;18.822;2023-05-07T00:03:49;100404.72;;;14.62;83.92
76994;BME280;66749;47.406;18.822;2023-05-07T00:04:19;100406.72;;;14.58;84.12
76994;BME280;66749;47.406;18.822;2023-05-07T00:04:51;100399.91;;;14.56;84.26
76994;BME280;66749;47.406;18.822;2023-05-07T00:05:22;100406.50;;;14.61;83.94
76994;BME280;66749;47.406;18.822;2023-05-07T00:05:52;100402.69;;;14.65;84.24
76994;BME280;66749;47.406;18.822;2023-05-07T00:06:23;100402.59;;;14.67;83.77
76994;BME280;66749;47.406;18.822;2023-05-07T00:06:54;100402.69;;;14.65;83.76
76994;BME280;66749;47.406;18.822;2023-05-07T00:07:25;100404.59;;;14.63;83.76
76994;BME280;66749;47.406;18.822;2023-05-07T00:07:56;100405.56;;;14.62;83.75
76994;BME280;66749;47.406;18.822;2023-05-07T00:08:27;100404.72;;;14.62;83.70
76994;BME280;66749;47.406;18.822;2023-05-07T00:08:58;100406.25;;;14.64;83.67
76994;BME280;66749;47.406;18.822;2023-05-07T00:09:29;100407.47;;;14.60;83.68
76994;BME280;66749;47.406;18.822;2023-05-07T00:10:00;100411.97;;;14.58;83.74
76994;BME280;66749;47.406;18.822;2023-05-07T00:10:30;100402.53;;;14.56;83.89
76994;BME280;66749;47.406;18.822;2023-05-07T00:11:01;100407.91;;;14.54;84.36
76994;BME280;66749;47.406;18.822;2023-05-07T00:11:32;100402.53;;;14.56;84.04
76994;BME280;66749;47.406;18.822;2023-05-07T00:12:03;100405.03;;;14.57;83.99
76994;BME280;66749;47.406;18.822;2023-05-07T00:12:34;100405.38;;;14.53;84.12
76994;BME280;66749;47.406;18.822;2023-05-07T00:13:05;100406.09;;;14.55;83.72
76994;BME280;66749;47.406;18.822;2023-05-07T00:13:35;100411.34;;;14.55;84.13
76994;BME280;66749;47.406;18.822;2023-05-07T00:14:06;100406.09;;;14.55;83.95
76994;BME280;66749;47.406;18.822;2023-05-07T00:14:36;100412.19;;;14.55;84.21
76994;BME280;66749;47.406;18.822;2023-05-07T00:15:07;100405.50;;;14.51;84.66
76994;BME280;66749;47.406;18.822;2023-05-07T00:15:38;100406.34;;;14.52;84.34
76994;BME280;66749;47.406;18.822;2023-05-07T00:16:09;100408.97;;;14.52;84.00
76994;BME280;66749;47.406;18.822;2023-05-07T00:16:39;100403.34;;;14.56;84.10
76994;BME280;66749;47.406;18.822;2023-05-07T00:17:10;100404.56;;;14.52;84.43
76994;BME280;66749;47.406;18.822;2023-05-07T00:17:41;100402.53;;;14.56;84.36
76994;BME280;66749;47.406;18.822;2023-05-07T00:18:11;100402.00;;;14.51;84.28
76994;BME280;66749;47.406;18.822;2023-05-07T00:18:42;100410.53;;;14.54;84.68
76994;BME280;66749;47.406;18.822;2023-05-07T00:19:12;100409.56;;;14.55;84.42
76994;BME280;66749;47.406;18.822;2023-05-07T00:19:43;100407.91;;;14.54;84.53
76994;BME280;66749;47.406;18.822;2023-05-07T00:20:13;100404.19;;;14.57;84.41
76994;BME280;66749;47.406;18.822;2023-05-07T00:20:44;100411.13;;;14.58;84.35
76994;BME280;66749;47.406;18.822;2023-05-07T00:21:14;100412.81;;;14.59;84.25
76994;BME280;66749;47.406;18.822;2023-05-07T00:21:45;100409.56;;;14.55;84.42
76994;BME280;66749;47.406;18.822;2023-05-07T00:22:16;100411.34;;;14.55;84.20
76994;BME280;66749;47.406;18.822;2023-05-07T00:22:46;100408.72;;;14.55;84.23
76994;BME280;66749;47.406;18.822;2023-05-07T00:23:17;100411.97;;;14.58;84.02
76994;BME280;66749;47.406;18.822;2023-05-07T00:23:47;100409.69;;;14.54;83.83
76994;BME280;66749;47.406;18.822;2023-05-07T00:24:18;100403.72;;;14.52;83.87
76994;BME280;66749;47.406;18.822;2023-05-07T00:24:48;100404.63;;;14.51;83.96
76994;BME280;66749;47.406;18.822;2023-05-07T00:25:19;100400.34;;;14.50;83.58
76994;BME280;66749;47.406;18.822;2023-05-07T00:25:50;100400.13;;;14.53;83.90
76994;BME280;66749;47.406;18.822;2023-05-07T00:26:20;100406.34;;;14.52;83.83
76994;BME280;66749;47.406;18.822;2023-05-07T00:26:51;100402.25;;;14.48;83.55
76994;BME280;66749;47.406;18.822;2023-05-07T00:27:23;100402.13;;;14.49;83.75
76994;BME280;66749;47.406;18.822;2023-05-07T00:27:54;100406.41;;;14.50;84.01
76994;BME280;66749;47.406;18.822;2023-05-07T00:28:24;100406.78;;;14.46;83.69
76994;BME280;66749;47.406;18.822;2023-05-07T00:28:55;100414.66;;;14.46;83.02
76994;BME280;66749;47.406;18.822;2023-05-07T00:29:25;100412.03;;;14.46;83.10
76994;BME280;66749;47.406;18.822;2023-05-07T00:29:56;100407.78;;;14.43;83.77
76994;BME280;66749;47.406;18.822;2023-05-07T00:30:27;100412.19;;;14.42;83.62
76994;BME280;66749;47.406;18.822;2023-05-07T00:30:57;100408.72;;;14.42;83.37
76994;BME280;66749;47.406;18.822;2023-05-07T00:31:28;100413.16;;;14.41;83.39
76994;BME280;66749;47.406;18.822;2023-05-07T00:31:58;100407.19;;;14.39;83.15
76994;BME280;66749;47.406;18.822;2023-05-07T00:32:29;100413.38;;;14.38;83.72
76994;BME280;66749;47.406;18.822;2023-05-07T00:32:59;100415.06;;;14.39;83.65
76994;BME280;66749;47.406;18.822;2023-05-07T00:33:30;100420.53;;;14.36;83.34
76994;BME280;66749;47.406;18.822;2023-05-07T00:34:01;100406.06;;;14.31;82.75
76994;BME280;66749;47.406;18.822;2023-05-07T00:34:31;100413.09;;;14.30;83.05
76994;BME280;66749;47.406;18.822;2023-05-07T00:35:03;100416.44;;;14.32;82.92
76994;BME280;66749;47.406;18.822;2023-05-07T00:35:33;100414.03;;;14.29;82.98
76994;BME280;66749;47.406;18.822;2023-05-07T00:36:04;100412.44;;;14.27;83.35
76994;BME280;66749;47.406;18.822;2023-05-07T00:36:35;100410.91;;;14.24;83.19
76994;BME280;66749;47.406;18.822;2023-05-07T00:37:06;100414.13;;;14.28;83.03
76994;BME280;66749;47.406;18.822;2023-05-07T00:37:37;100415.00;;;14.28;82.85
76994;BME280;66749;47.406;18.822;2023-05-07T00:38:08;100416.03;;;14.26;82.96
76994;BME280;66749;47.406;18.822;2023-05-07T00:38:39;100411.72;;;14.25;83.07
76994;BME280;66749;47.406;18.822;2023-05-07T00:39:09;100411.13;;;14.21;83.09
76994;BME280;66749;47.406;18.822;2023-05-07T00:39:40;100414.66;;;14.20;83.29
76994;BME280;66749;47.406;18.822;2023-05-07T00:40:10;100413.94;;;14.18;83.27
76994;BME280;66749;47.406;18.822;2023-05-07T00:40:41;100414.19;;;14.15;82.86
76994;BME280;66749;47.406;18.822;2023-05-07T00:41:15;100411.88;;;14.10;82.69
76994;BME280;66749;47.406;18.822;2023-05-07T00:41:46;100412.09;;;14.07;82.47
76994;BME280;66749;47.406;18.822;2023-05-07T00:42:17;100407.03;;;14.04;82.69
76994;BME280;66749;47.406;18.822;2023-05-07T00:42:48;100410.72;;;14.02;83.12
76994;BME280;66749;47.406;18.822;2023-05-07T00:43:19;100413.34;;;14.02;82.97
76994;BME280;66749;47.406;18.822;2023-05-07T00:43:50;100409.06;;;14.01;83.18
76994;BME280;66749;47.406;18.822;2023-05-07T00:44:21;100408.22;;;14.00;83.28
76994;BME280;66749;47.406;18.822;2023-05-07T00:44:52;100413.59;;;13.99;83.02
76994;BME280;66749;47.406;18.822;2023-05-07T00:45:26;100415.25;;;14.00;83.20
76994;BME280;66749;47.406;18.822;2023-05-07T00:45:57;100418.06;;;13.97;82.95
76994;BME280;66749;47.406;18.822;2023-05-07T00:46:28;100409.72;;;13.92;83.61
76994;BME280;66749;47.406;18.822;2023-05-07T00:47:03;100414.72;;;13.95;83.20
76994;BME280;66749;47.406;18.822;2023-05-07T00:47:35;100408.88;;;13.91;83.26
76994;BME280;66749;47.406;18.822;2023-05-07T00:48:06;100417.34;;;13.95;83.43
76994;BME280;66749;47.406;18.822;2023-05-07T00:48:37;100418.31;;;13.94;83.18
76994;BME280;66749;47.406;18.822;2023-05-07T00:49:07;100412.09;;;13.95;83.12
76994;BME280;66749;47.406;18.822;2023-05-07T00:49:41;100416.50;;;13.94;83.35
76994;BME280;66749;47.406;18.822;2023-05-07T00:50:12;100420.94;;;13.94;83.28
76994;BME280;66749;47.406;18.822;2023-05-07T00:50:44;100416.09;;;13.87;83.36
76994;BME280;66749;47.406;18.822;2023-05-07T00:51:15;100420.19;;;13.92;83.25
76994;BME280;66749;47.406;18.822;2023-05-07T00:51:46;100414.00;;;13.93;83.24
76994;BME280;66749;47.406;18.822;2023-05-07T00:52:20;100417.56;;;13.92;83.25
76994;BME280;66749;47.406;18.822;2023-05-07T00:52:52;100421.75;;;13.94;83.29
76994;BME280;66749;47.406;18.822;2023-05-07T00:53:23;100419.03;;;13.96;82.98
76994;BME280;66749;47.406;18.822;2023-05-07T00:53:53;100425.22;;;13.95;83.07
76994;BME280;66749;47.406;18.822;2023-05-07T00:54:24;100421.16;;;13.91;83.17
76994;BME280;66749;47.406;18.822;2023-05-07T00:54:55;100416.09;;;13.87;83.32
76994;BME280;66749;47.406;18.822;2023-05-07T00:55:26;100419.66;;;13.86;83.70
76994;BME280;66749;47.406;18.822;2023-05-07T00:55:57;100416.94;;;13.88;83.54
76994;BME280;66749;47.406;18.822;2023-05-07T00:56:27;100413.91;;;13.81;83.53
76994;BME280;66749;47.406;18.822;2023-05-07T00:56:58;100416.53;;;13.81;83.22
76994;BME280;66749;47.406;18.822;2023-05-07T00:57:29;100411.06;;;13.84;83.22
76994;BME280;66749;47.406;18.822;2023-05-07T00:58:02;100413.91;;;13.81;83.38
76994;BME280;66749;47.406;18.822;2023-05-07T00:58:33;100417.47;;;13.80;83.64
76994;BME280;66749;47.406;18.822;2023-05-07T00:59:05;100415.50;;;13.84;83.60
76994;BME280;66749;47.406;18.822;2023-05-07T00:59:37;100412.94;;;13.82;83.34
76994;BME280;66749;47.406;18.822;2023-05-07T01:00:09;100418.19;;;13.82;83.45
76994;BME280;66749;47.406;18.822;2023-05-07T01:00:40;100417.47;;;13.80;83.50
76994;BME280;66749;47.406;18.822;2023-05-07T01:01:10;100411.72;;;13.75;83.18
76994;BME280;66749;47.406;18.822;2023-05-07T01:01:41;100414.22;;;13.77;83.58
76994;BME280;66749;47.406;18.822;2023-05-07T01:02:12;100411.50;;;13.78;83.34
76994;BME280;66749;47.406;18.822;2023-05-07T01:02:43;100419.59;;;13.75;82.92
76994;BME280;66749;47.406;18.822;2023-05-07T01:03:14;100420.09;;;13.68;82.55
76994;BME280;66749;47.406;18.822;2023-05-07T01:03:45;100414.13;;;13.66;82.86
76994;BME280;66749;47.406;18.822;2023-05-07T01:04:15;100421.38;;;13.62;82.82
76994;BME280;66749;47.406;18.822;2023-05-07T01:04:46;100416.13;;;13.62;82.74
76994;BME280;66749;47.406;18.822;2023-05-07T01:05:19;100416.97;;;13.63;82.67
76994;BME280;66749;47.406;18.822;2023-05-07T01:05:52;100418.22;;;13.57;82.68
76994;BME280;66749;47.406;18.822;2023-05-07T01:06:25;100424.19;;;13.59;82.85
76994;BME280;66749;47.406;18.822;2023-05-07T01:06:59;100421.78;;;13.56;82.72
76994;BME280;66749;47.406;18.822;2023-05-07T01:07:32;100422.63;;;13.56;82.99
76994;BME280;66749;47.406;18.822;2023-05-07T01:08:04;100418.22;;;13.57;83.23
76994;BME280;66749;47.406;18.822;2023-05-07T01:08:35;100420.81;;;13.57;83.10
76994;BME280;66749;47.406;18.822;2023-05-07T01:09:07;100417.38;;;13.56;83.09
76994;BME280;66749;47.406;18.822;2023-05-07T01:09:40;100420.00;;;13.56;83.10
76994;BME280;66749;47.406;18.822;2023-05-07T01:10:11;100418.44;;;13.54;82.90
76994;BME280;66749;47.406;18.822;2023-05-07T01:10:43;100427.25;;;13.53;82.95
76994;BME280;66749;47.406;18.822;2023-05-07T01:11:14;100423.88;;;13.51;83.27
76994;BME280;66749;47.406;18.822;2023-05-07T01:11:47;100429.31;;;13.48;83.45
76994;BME280;66749;47.406;18.822;2023-05-07T01:12:18;100423.13;;;13.49;83.57
76994;BME280;66749;47.406;18.822;2023-05-07T01:12:50;100420.50;;;13.49;83.37
76994;BME280;66749;47.406;18.822;2023-05-07T01:13:21;100418.84;;;13.48;82.89
76994;BME280;66749;47.406;18.822;2023-05-07T01:13:52;100418.94;;;13.46;83.08
76994;BME280;66749;47.406;18.822;2023-05-07T01:14:23;100429.31;;;13.48;83.14
76994;BME280;66749;47.406;18.822;2023-05-07T01:14:55;100427.66;;;13.47;83.06
76994;BME280;66749;47.406;18.822;2023-05-07T01:15:25;100432.13;;;13.45;83.23
76994;BME280;66749;47.406;18.822;2023-05-07T01:15:56;100427.66;;;13.47;83.00
76994;BME280;66749;47.406;18.822;2023-05-07T01:16:27;100423.97;;;13.49;82.91
76994;BME280;66749;47.406;18.822;2023-05-07T01:16:58;100429.31;;;13.48;82.95
76994;BME280;66749;47.406;18.822;2023-05-07T01:17:29;100426.69;;;13.48;82.69
76994;BME280;66749;47.406;18.822;2023-05-07T01:18:00;100429.72;;;13.42;83.17
76994;BME280;66749;47.406;18.822;2023-05-07T01:18:31;100430.69;;;13.41;83.20
76994;BME280;66749;47.406;18.822;2023-05-07T01:19:02;100422.81;;;13.41;83.40
76994;BME280;66749;47.406;18.822;2023-05-07T01:19:33;100427.13;;;13.42;83.12
76994;BME280;66749;47.406;18.822;2023-05-07T01:20:05;100432.25;;;13.43;83.06
76994;BME280;66749;47.406;18.822;2023-05-07T01:20:36;100431.50;;;13.41;83.20
76994;BME280;66749;47.406;18.822;2023-05-07T01:21:07;100432.66;;;13.37;82.78
76994;BME280;66749;47.406;18.822;2023-05-07T01:21:45;100438.13;;;13.34;83.08
76994;BME280;66749;47.406;18.822;2023-05-07T01:22:29;100433.91;;;13.31;83.21
76994;BME280;66749;47.406;18.822;2023-05-07T01:23:03;100435.59;;;13.32;83.07
76994;BME280;66749;47.406;18.822;2023-05-07T01:23:34;100433.91;;;13.31;82.89
76994;BME280;66749;47.406;18.822;2023-05-07T01:24:06;100438.22;;;13.32;83.01
76994;BME280;66749;47.406;18.822;2023-05-07T01:24:37;100435.59;;;13.32;82.97
76994;BME280;66749;47.406;18.822;2023-05-07T01:25:08;100440.84;;;13.32;82.87
76994;BME280;66749;47.406;18.822;2023-05-07T01:25:39;100435.59;;;13.32;82.99
76994;BME280;66749;47.406;18.822;2023-05-07T01:26:09;100444.19;;;13.35;82.93
76994;BME280;66749;47.406;18.822;2023-05-07T01:26:40;100438.94;;;13.35;82.86
76994;BME280;66749;47.406;18.822;2023-05-07T01:27:11;100434.66;;;13.33;83.07
76994;BME280;66749;47.406;18.822;2023-05-07T01:27:41;100439.16;;;13.31;83.01
76994;BME280;66749;47.406;18.822;2023-05-07T01:28:12;100444.53;;;13.30;82.71
76994;BME280;66749;47.406;18.822;2023-05-07T01:28:42;100441.25;;;13.26;82.90
76994;BME280;66749;47.406;18.822;2023-05-07T01:29:13;100437.91;;;13.24;83.00
76994;BME280;66749;47.406;18.822;2023-05-07T01:29:43;100441.47;;;13.23;82.82
76994;BME280;66749;47.406;18.822;2023-05-07T01:30:15;100437.91;;;13.24;82.97
76994;BME280;66749;47.406;18.822;2023-05-07T01:30:54;100438.00;;;13.23;82.78
76994;BME280;66749;47.406;18.822;2023-05-07T01:31:27;100434.50;;;13.22;82.72
76994;BME280;66749;47.406;18.822;2023-05-07T01:32:00;100441.72;;;13.19;82.57
76994;BME280;66749;47.406;18.822;2023-05-07T01:32:40;100436.41;;;13.20;82.71
76994;BME280;66749;47.406;18.822;2023-05-07T01:33:15;100436.59;;;13.17;82.96
76994;BME280;66749;47.406;18.822;2023-05-07T01:33:51;100430.69;;;13.14;82.83
76994;BME280;66749;47.406;18.822;2023-05-07T01:34:25;100433.41;;;13.12;82.95
76994;BME280;66749;47.406;18.822;2023-05-07T01:34:57;100438.66;;;13.12;82.47
76994;BME280;66749;47.406;18.822;2023-05-07T01:35:32;100428.41;;;13.09;82.78
76994;BME280;66749;47.406;18.822;2023-05-07T01:36:04;100437.72;;;13.13;82.30
76994;BME280;66749;47.406;18.822;2023-05-07T01:36:38;100431.75;;;13.11;82.66
76994;BME280;66749;47.406;18.822;2023-05-07T01:37:09;100431.00;;;13.09;82.55
76994;BME280;66749;47.406;18.822;2023-05-07T01:37:40;100439.06;;;13.06;82.98
76994;BME280;66749;47.406;18.822;2023-05-07T01:38:12;100435.72;;;13.04;83.00
76994;BME280;66749;47.406;18.822;2023-05-07T01:38:44;100432.34;;;13.02;82.94
76994;BME280;66749;47.406;18.822;2023-05-07T01:39:16;100437.59;;;13.02;83.01
76994;BME280;66749;47.406;18.822;2023-05-07T01:39:48;100437.59;;;13.02;82.83
76994;BME280;66749;47.406;18.822;2023-05-07T01:40:18;100430.47;;;13.04;82.70
76994;BME280;66749;47.406;18.822;2023-05-07T01:40:49;100434.88;;;13.03;82.57
76994;BME280;66749;47.406;18.822;2023-05-07T01:41:21;100441.34;;;12.98;82.82
76994;BME280;66749;47.406;18.822;2023-05-07T01:41:54;100444.72;;;13.00;82.70
76994;BME280;66749;47.406;18.822;2023-05-07T01:42:25;100432.84;;;12.94;82.38
76994;BME280;66749;47.406;18.822;2023-05-07T01:42:56;100437.44;;;12.91;82.59
76994;BME280;66749;47.406;18.822;2023-05-07T01:43:28;100429.69;;;12.89;82.25
76994;BME280;66749;47.406;18.822;2023-05-07T01:44:00;100434.19;;;12.87;82.15
76994;BME280;66749;47.406;18.822;2023-05-07T01:44:31;100433.47;;;12.85;82.05
76994;BME280;66749;47.406;18.822;2023-05-07T01:45:02;100428.22;;;12.85;82.13
76994;BME280;66749;47.406;18.822;2023-05-07T01:45:34;100431.69;;;12.86;82.28
76994;BME280;66749;47.406;18.822;2023-05-07T01:46:05;100436.09;;;12.85;82.37
76994;BME280;66749;47.406;18.822;2023-05-07T01:46:37;100435.25;;;12.85;82.42
76994;BME280;66749;47.406;18.822;2023-05-07T01:47:08;100432.53;;;12.86;82.50
76994;BME280;66749;47.406;18.822;2023-05-07T01:47:39;100437.88;;;12.85;82.74
76994;BME280;66749;47.406;18.822;2023-05-07T01:48:13;100436.16;;;12.84;82.22
76994;BME280;66749;47.406;18.822;2023-05-07T01:48:45;100436.38;;;12.81;82.01
76994;BME280;66749;47.406;18.822;2023-05-07T01:49:16;100430.41;;;12.78;82.05
76994;BME280;66749;47.406;18.822;2023-05-07T01:49:47;100425.34;;;12.75;82.46
76994;BME280;66749;47.406;18.822;2023-05-07T01:50:19;100432.25;;;12.76;82.49
76994;BME280;66749;47.406;18.822;2023-05-07T01:50:51;100434.78;;;12.78;82.24
76994;BME280;66749;47.406;18.822;2023-05-07T01:51:21;100433.09;;;12.77;82.46
76994;BME280;66749;47.406;18.822;2023-05-07T01:51:52;100432.91;;;12.80;82.28
76994;BME280;66749;47.406;18.822;2023-05-07T01:52:23;100432.34;;;12.75;82.48
76994;BME280;66749;47.406;18.822;2023-05-07T01:52:55;100426.28;;;12.74;82.41
76994;BME280;66749;47.406;18.822;2023-05-07T01:53:27;100421.25;;;12.71;82.77
76994;BME280;66749;47.406;18.822;2023-05-07T01:53:58;100423.66;;;12.74;82.87
76994;BME280;66749;47.406;18.822;2023-05-07T01:54:28;100428.06;;;12.74;82.69
76994;BME280;66749;47.406;18.822;2023-05-07T01:54:59;100422.00;;;12.73;82.62
76994;BME280;66749;47.406;18.822;2023-05-07T01:55:30;100420.31;;;12.72;82.65
76994;BME280;66749;47.406;18.822;2023-05-07T01:56:01;100423.88;;;12.71;82.69
76994;BME280;66749;47.406;18.822;2023-05-07T01:56:31;100418.91;;;12.67;82.67
76994;BME280;66749;47.406;18.822;2023-05-07T01:57:02;100414.53;;;12.67;82.80
76994;BME280;66749;47.406;18.822;2023-05-07T01:57:32;100414.34;;;12.70;82.76
76994;BME280;66749;47.406;18.822;2023-05-07T01:58:03;100416.41;;;12.65;82.87
76994;BME280;66749;47.406;18.822;2023-05-07T01:58:34;100419.75;;;12.67;83.29
76994;BME280;66749;47.406;18.822;2023-05-07T01:59:05;100416.31;;;12.67;83.12
76994;BME280;66749;47.406;18.822;2023-05-07T01:59:35;100412.75;;;12.68;83.20
76994;BME280;66749;47.406;18.822;2023-05-07T02:00:06;100416.13;;;12.70;83.12
76994;BME280;66749;47.406;18.822;2023-05-07T02:00:39;100419.66;;;12.69;82.75
76994;BME280;66749;47.406;18.822;2023-05-07T02:01:11;100416.97;;;12.70;82.79
76994;BME280;66749;47.406;18.822;2023-05-07T02:01:41;100413.56;;;12.68;82.82
76994;BME280;66749;47.406;18.822;2023-05-07T02:02:12;100411.06;;;12.67;83.42
76994;BME280;66749;47.406;18.822;2023-05-07T02:02:42;100424.25;;;12.65;83.16
76994;BME280;66749;47.406;18.822;2023-05-07T02:03:13;100414.06;;;12.61;83.17
76994;BME280;66749;47.406;18.822;2023-05-07T02:03:44;100419.13;;;12.64;83.16
76994;BME280;66749;47.406;18.822;2023-05-07T02:04:14;100417.34;;;12.64;83.31
76994;BME280;66749;47.406;18.822;2023-05-07T02:04:45;100409.66;;;12.61;82.95
76994;BME280;66749;47.406;18.822;2023-05-07T02:05:16;100412.28;;;12.61;83.16
76994;BME280;66749;47.406;18.822;2023-05-07T02:05:46;100414.19;;;12.59;83.26
76994;BME280;66749;47.406;18.822;2023-05-07T02:06:17;100413.34;;;12.59;83.02
76994;BME280;66749;47.406;18.822;2023-05-07T02:06:47;100411.56;;;12.59;83.04
76994;BME280;66749;47.406;18.822;2023-05-07T02:07:18;100412.13;;;12.64;82.85
76994;BME280;66749;47.406;18.822;2023-05-07T02:07:48;100413.91;;;12.64;82.80
76994;BME280;66749;47.406;18.822;2023-05-07T02:08:19;100414.72;;;12.64;82.68
76994;BME280;66749;47.406;18.822;2023-05-07T02:08:50;100420.91;;;12.63;82.75
76994;BME280;66749;47.406;18.822;2023-05-07T02:09:21;100408.94;;;12.59;82.96
76994;BME280;66749;47.406;18.822;2023-05-07T02:09:53;100408.94;;;12.59;83.21
76994;BME280;66749;47.406;18.822;2023-05-07T02:10:25;100402.97;;;12.57;82.96
76994;BME280;66749;47.406;18.822;2023-05-07T02:10:56;100417.84;;;12.57;82.93
76994;BME280;66749;47.406;18.822;2023-05-07T02:11:26;100420.56;;;12.55;82.92
76994;BME280;66749;47.406;18.822;2023-05-07T02:11:57;100414.38;;;12.56;82.89
76994;BME280;66749;47.406;18.822;2023-05-07T02:12:27;100422.13;;;12.58;82.38
76994;BME280;66749;47.406;18.822;2023-05-07T02:12:58;100418.78;;;12.56;82.17
76994;BME280;66749;47.406;18.822;2023-05-07T02:13:32;100413.72;;;12.53;82.10
76994;BME280;66749;47.406;18.822;2023-05-07T02:14:02;100416.44;;;12.51;82.22
76994;BME280;66749;47.406;18.822;2023-05-07T02:14:33;100418.50;;;12.46;82.07
76994;BME280;66749;47.406;18.822;2023-05-07T02:15:04;100412.44;;;12.45;82.16
76994;BME280;66749;47.406;18.822;2023-05-07T02:15:35;100416.72;;;12.46;82.24
76994;BME280;66749;47.406;18.822;2023-05-07T02:16:06;100413.28;;;12.46;82.28
76994;BME280;66749;47.406;18.822;2023-05-07T02:16:37;100417.59;;;12.47;81.88
76994;BME280;66749;47.406;18.822;2023-05-07T02:17:07;100420.59;;;12.41;82.43
76994;BME280;66749;47.406;18.822;2023-05-07T02:17:58;100414.53;;;12.40;82.41
76994;BME280;66749;47.406;18.822;2023-05-07T02:18:30;100412.63;;;12.42;82.42
76994;BME280;66749;47.406;18.822;2023-05-07T02:19:00;100404.88;;;12.41;82.70
76994;BME280;66749;47.406;18.822;2023-05-07T02:19:31;100420.69;;;12.39;82.81
76994;BME280;66749;47.406;18.822;2023-05-07T02:20:02;100418.09;;;12.39;83.02
76994;BME280;66749;47.406;18.822;2023-05-07T02:20:34;100411.81;;;12.42;82.64
76994;BME280;66749;47.406;18.822;2023-05-07T02:21:05;100412.75;;;12.41;82.57
76994;BME280;66749;47.406;18.822;2023-05-07T02:21:35;100412.75;;;12.41;82.63
76994;BME280;66749;47.406;18.822;2023-05-07T02:22:07;100407.41;;;12.42;82.65
76994;BME280;66749;47.406;18.822;2023-05-07T02:22:37;100411.81;;;12.42;82.88
76994;BME280;66749;47.406;18.822;2023-05-07T02:23:08;100406.75;;;12.39;82.99
76994;BME280;66749;47.406;18.822;2023-05-07T02:23:39;100411.25;;;12.37;82.88
76994;BME280;66749;47.406;18.822;2023-05-07T02:24:10;100409.56;;;12.36;83.37
76994;BME280;66749;47.406;18.822;2023-05-07T02:24:40;100410.31;;;12.38;83.22
76994;BME280;66749;47.406;18.822;2023-05-07T02:25:11;100406.94;;;12.36;83.11
76994;BME280;66749;47.406;18.822;2023-05-07T02:25:41;100406.94;;;12.36;83.20
76994;BME280;66749;47.406;18.822;2023-05-07T02:26:12;100405.38;;;12.33;83.65
76994;BME280;66749;47.406;18.822;2023-05-07T02:26:42;100408.63;;;12.37;83.58
76994;BME280;66749;47.406;18.822;2023-05-07T02:27:13;100408.44;;;12.40;83.32
76994;BME280;66749;47.406;18.822;2023-05-07T02:27:43;100409.47;;;12.37;83.50
76994;BME280;66749;47.406;18.822;2023-05-07T02:28:14;100412.91;;;12.38;83.46
76994;BME280;66749;47.406;18.822;2023-05-07T02:28:45;100407.63;;;12.39;83.85
76994;BME280;66749;47.406;18.822;2023-05-07T02:29:16;100407.63;;;12.39;83.99
76994;BME280;66749;47.406;18.822;2023-05-07T02:29:46;100405.91;;;12.38;84.08
76994;BME280;66749;47.406;18.822;2023-05-07T02:30:17;100407.78;;;12.36;84.28
76994;BME280;66749;47.406;18.822;2023-05-07T02:30:48;100404.13;;;12.39;84.18
76994;BME280;66749;47.406;18.822;2023-05-07T02:31:19;100402.44;;;12.38;83.96
76994;BME280;66749;47.406;18.822;2023-05-07T02:31:50;100405.91;;;12.38;83.45
76994;BME280;66749;47.406;18.822;2023-05-07T02:32:23;100408.44;;;12.40;83.77
76994;BME280;66749;47.406;18.822;2023-05-07T02:32:53;100402.44;;;12.38;83.73
76994;BME280;66749;47.406;18.822;2023-05-07T02:33:24;100396.47;;;12.36;83.46
76994;BME280;66749;47.406;18.822;2023-05-07T02:33:55;100398.16;;;12.37;83.02
76994;BME280;66749;47.406;18.822;2023-05-07T02:34:26;100400.88;;;12.35;83.17
76994;BME280;66749;47.406;18.822;2023-05-07T02:34:57;100403.50;;;12.35;83.19
76994;BME280;66749;47.406;18.822;2023-05-07T02:35:27;100395.84;;;12.32;83.01
76994;BME280;66749;47.406;18.822;2023-05-07T02:36:05;100397.31;;;12.36;83.05
76994;BME280;66749;47.406;18.822;2023-05-07T02:36:36;100394.81;;;12.35;82.85
76994;BME280;66749;47.406;18.822;2023-05-07T02:37:06;100393.22;;;12.32;82.61
76994;BME280;66749;47.406;18.822;2023-05-07T02:37:37;100400.97;;;12.34;82.70
76994;BME280;66749;47.406;18.822;2023-05-07T02:38:07;100395.19;;;12.29;82.79
76994;BME280;66749;47.406;18.822;2023-05-07T02:38:40;100399.69;;;12.27;82.49
76994;BME280;66749;47.406;18.822;2023-05-07T02:39:14;100395.41;;;12.26;82.50
76994;BME280;66749;47.406;18.822;2023-05-07T02:39:45;100394.72;;;12.22;82.60
76994;BME280;66749;47.406;18.822;2023-05-07T02:40:16;100397.34;;;12.22;82.61
76994;BME280;66749;47.406;18.822;2023-05-07T02:40:46;100386.03;;;12.21;82.77
76994;BME280;66749;47.406;18.822;2023-05-07T02:41:17;100395.66;;;12.21;83.06
76994;BME280;66749;47.406;18.822;2023-05-07T02:41:48;100390.34;;;12.22;82.79